FLL weather

Fort Lauderdale Hollywood International Airport
Fort Lauderdale, Florida, United States

Public forecast

Using degrees Fahrenheit for public forecast. Weather courtesy of forecast.io.

METAR (pilot weather report)

Retrieved 2017/03/29 08:53 UTC (15 minutes ago):

KFLL 290853Z 13003KT 10SM SCT030 23/18 A2997

TAF (pilot weather forecast)

Retrieved 2017/03/29 06:27 UTC (3 hours ago):

TAF KFLL 290520Z 2906/3006 VRB03KT P6SM BKN030 BKN080 FM291200 19003KT P6SM SCT050 FM291500 12010KT P6SM SCT035 SCT070